sensor_id;sensor_type;location;lat;lon;timestamp;P1;durP1;ratioP1;P2;durP2;ratioP2
48052;SDS011;33824;51.600;5.718;2023-07-09T00:02:01;8.02;;;4.55;;
48052;SDS011;33824;51.600;5.718;2023-07-09T00:04:27;8.65;;;4.53;;
48052;SDS011;33824;51.600;5.718;2023-07-09T00:06:54;9.10;;;4.85;;
48052;SDS011;33824;51.600;5.718;2023-07-09T00:09:23;10.60;;;4.68;;
48052;SDS011;33824;51.600;5.718;2023-07-09T00:11:48;9.82;;;4.60;;
48052;SDS011;33824;51.600;5.718;2023-07-09T00:14:15;10.38;;;4.80;;
48052;SDS011;33824;51.600;5.718;2023-07-09T00:16:43;9.38;;;4.60;;
48052;SDS011;33824;51.600;5.718;2023-07-09T00:19:13;14.15;;;4.80;;
48052;SDS011;33824;51.600;5.718;2023-07-09T00:21:43;7.32;;;3.80;;
48052;SDS011;33824;51.600;5.718;2023-07-09T00:24:11;11.32;;;4.82;;
48052;SDS011;33824;51.600;5.718;2023-07-09T00:26:37;10.73;;;4.82;;
48052;SDS011;33824;51.600;5.718;2023-07-09T00:29:09;10.55;;;5.32;;
48052;SDS011;33824;51.600;5.718;2023-07-09T00:31:36;10.25;;;5.45;;
48052;SDS011;33824;51.600;5.718;2023-07-09T00:34:07;11.43;;;5.15;;
48052;SDS011;33824;51.600;5.718;2023-07-09T00:36:36;9.05;;;5.13;;
48052;SDS011;33824;51.600;5.718;2023-07-09T00:39:02;12.57;;;6.55;;
48052;SDS011;33824;51.600;5.718;2023-07-09T00:41:36;13.02;;;6.63;;
48052;SDS011;33824;51.600;5.718;2023-07-09T00:49:26;15.88;;;6.68;;
48052;SDS011;33824;51.600;5.718;2023-07-09T00:51:55;10.95;;;6.13;;
48052;SDS011;33824;51.600;5.718;2023-07-09T00:54:27;16.13;;;5.82;;
48052;SDS011;33824;51.600;5.718;2023-07-09T00:57:01;15.45;;;6.68;;
48052;SDS011;33824;51.600;5.718;2023-07-09T00:59:31;15.52;;;7.22;;
48052;SDS011;33824;51.600;5.718;2023-07-09T01:01:57;15.10;;;7.05;;
48052;SDS011;33824;51.600;5.718;2023-07-09T01:04:25;15.55;;;7.40;;
48052;SDS011;33824;51.600;5.718;2023-07-09T01:06:53;15.73;;;7.20;;
48052;SDS011;33824;51.600;5.718;2023-07-09T01:09:24;16.92;;;7.00;;
48052;SDS011;33824;51.600;5.718;2023-07-09T01:11:50;12.20;;;6.68;;
48052;SDS011;33824;51.600;5.718;2023-07-09T01:14:17;13.85;;;6.75;;
48052;SDS011;33824;51.600;5.718;2023-07-09T01:16:48;19.20;;;7.57;;
48052;SDS011;33824;51.600;5.718;2023-07-09T01:19:26;14.25;;;6.68;;
48052;SDS011;33824;51.600;5.718;2023-07-09T01:21:57;13.77;;;7.25;;
48052;SDS011;33824;51.600;5.718;2023-07-09T01:27:12;16.70;;;7.10;;
48052;SDS011;33824;51.600;5.718;2023-07-09T01:29:38;12.23;;;6.07;;
48052;SDS011;33824;51.600;5.718;2023-07-09T01:32:05;13.80;;;7.63;;
48052;SDS011;33824;51.600;5.718;2023-07-09T01:34:32;17.70;;;6.95;;
48052;SDS011;33824;51.600;5.718;2023-07-09T01:36:58;13.27;;;7.25;;
48052;SDS011;33824;51.600;5.718;2023-07-09T01:39:25;18.25;;;7.20;;
48052;SDS011;33824;51.600;5.718;2023-07-09T01:41:53;11.98;;;6.50;;
48052;SDS011;33824;51.600;5.718;2023-07-09T01:44:19;11.93;;;6.93;;
48052;SDS011;33824;51.600;5.718;2023-07-09T01:46:45;13.18;;;6.20;;
48052;SDS011;33824;51.600;5.718;2023-07-09T01:49:11;12.85;;;6.68;;
48052;SDS011;33824;51.600;5.718;2023-07-09T01:51:36;13.18;;;7.72;;
48052;SDS011;33824;51.600;5.718;2023-07-09T01:54:03;16.35;;;7.25;;
48052;SDS011;33824;51.600;5.718;2023-07-09T01:56:28;16.33;;;6.93;;
48052;SDS011;33824;51.600;5.718;2023-07-09T01:58:54;14.60;;;6.97;;
48052;SDS011;33824;51.600;5.718;2023-07-09T02:01:26;12.90;;;6.57;;
48052;SDS011;33824;51.600;5.718;2023-07-09T02:03:55;12.20;;;6.72;;
48052;SDS011;33824;51.600;5.718;2023-07-09T02:06:20;15.65;;;6.80;;
48052;SDS011;33824;51.600;5.718;2023-07-09T02:08:49;13.25;;;6.90;;
48052;SDS011;33824;51.600;5.718;2023-07-09T02:11:15;16.33;;;7.15;;
48052;SDS011;33824;51.600;5.718;2023-07-09T02:13:41;13.52;;;7.30;;
48052;SDS011;33824;51.600;5.718;2023-07-09T02:16:06;12.20;;;7.05;;
48052;SDS011;33824;51.600;5.718;2023-07-09T02:18:32;12.13;;;6.63;;
48052;SDS011;33824;51.600;5.718;2023-07-09T02:20:57;14.60;;;7.05;;
48052;SDS011;33824;51.600;5.718;2023-07-09T02:23:26;12.82;;;6.95;;
48052;SDS011;33824;51.600;5.718;2023-07-09T02:25:53;16.60;;;7.70;;
48052;SDS011;33824;51.600;5.718;2023-07-09T02:28:19;18.83;;;7.65;;
48052;SDS011;33824;51.600;5.718;2023-07-09T02:30:44;12.95;;;6.78;;
48052;SDS011;33824;51.600;5.718;2023-07-09T02:33:10;14.98;;;6.40;;
48052;SDS011;33824;51.600;5.718;2023-07-09T02:35:36;11.60;;;6.50;;
48052;SDS011;33824;51.600;5.718;2023-07-09T02:38:02;10.25;;;6.07;;
48052;SDS011;33824;51.600;5.718;2023-07-09T02:40:28;14.20;;;6.88;;
48052;SDS011;33824;51.600;5.718;2023-07-09T02:42:54;12.82;;;6.03;;
48052;SDS011;33824;51.600;5.718;2023-07-09T02:45:22;10.00;;;6.30;;
48052;SDS011;33824;51.600;5.718;2023-07-09T02:47:47;14.02;;;6.57;;
48052;SDS011;33824;51.600;5.718;2023-07-09T02:50:13;16.83;;;7.05;;
48052;SDS011;33824;51.600;5.718;2023-07-09T02:52:39;13.90;;;6.32;;
48052;SDS011;33824;51.600;5.718;2023-07-09T02:55:07;11.55;;;6.05;;
48052;SDS011;33824;51.600;5.718;2023-07-09T02:57:35;11.52;;;6.95;;
48052;SDS011;33824;51.600;5.718;2023-07-09T03:00:01;10.60;;;5.95;;
48052;SDS011;33824;51.600;5.718;2023-07-09T03:02:28;10.20;;;6.10;;
48052;SDS011;33824;51.600;5.718;2023-07-09T03:04:53;13.73;;;6.47;;
48052;SDS011;33824;51.600;5.718;2023-07-09T03:07:19;9.60;;;5.50;;
48052;SDS011;33824;51.600;5.718;2023-07-09T03:09:45;10.75;;;5.50;;
48052;SDS011;33824;51.600;5.718;2023-07-09T03:12:10;22.20;;;7.65;;
48052;SDS011;33824;51.600;5.718;2023-07-09T03:14:36;14.80;;;7.30;;
48052;SDS011;33824;51.600;5.718;2023-07-09T03:17:01;12.07;;;6.32;;
48052;SDS011;33824;51.600;5.718;2023-07-09T03:19:27;12.45;;;5.60;;
48052;SDS011;33824;51.600;5.718;2023-07-09T03:21:53;13.27;;;6.72;;
48052;SDS011;33824;51.600;5.718;2023-07-09T03:24:18;16.63;;;6.88;;
48052;SDS011;33824;51.600;5.718;2023-07-09T03:26:47;18.70;;;8.23;;
48052;SDS011;33824;51.600;5.718;2023-07-09T03:29:13;16.50;;;7.25;;
48052;SDS011;33824;51.600;5.718;2023-07-09T03:31:39;15.02;;;8.15;;
48052;SDS011;33824;51.600;5.718;2023-07-09T03:34:05;11.40;;;7.13;;
48052;SDS011;33824;51.600;5.718;2023-07-09T03:36:30;17.58;;;7.85;;
48052;SDS011;33824;51.600;5.718;2023-07-09T03:38:56;11.85;;;6.88;;
48052;SDS011;33824;51.600;5.718;2023-07-09T03:41:22;14.57;;;7.50;;
48052;SDS011;33824;51.600;5.718;2023-07-09T03:43:47;16.13;;;7.55;;
48052;SDS011;33824;51.600;5.718;2023-07-09T03:46:15;11.40;;;6.10;;
48052;SDS011;33824;51.600;5.718;2023-07-09T03:48:41;11.77;;;5.72;;
48052;SDS011;33824;51.600;5.718;2023-07-09T03:51:06;14.00;;;6.72;;
48052;SDS011;33824;51.600;5.718;2023-07-09T03:53:32;10.77;;;7.05;;
48052;SDS011;33824;51.600;5.718;2023-07-09T03:55:57;15.07;;;7.00;;
48052;SDS011;33824;51.600;5.718;2023-07-09T03:58:25;14.55;;;6.65;;
48052;SDS011;33824;51.600;5.718;2023-07-09T04:00:52;12.25;;;5.85;;
48052;SDS011;33824;51.600;5.718;2023-07-09T04:03:19;13.00;;;6.53;;
48052;SDS011;33824;51.600;5.718;2023-07-09T04:05:46;14.38;;;7.43;;
48052;SDS011;33824;51.600;5.718;2023-07-09T04:08:12;12.95;;;7.82;;
48052;SDS011;33824;51.600;5.718;2023-07-09T04:10:38;14.90;;;8.65;;
48052;SDS011;33824;51.600;5.718;2023-07-09T04:13:03;19.13;;;7.30;;
48052;SDS011;33824;51.600;5.718;2023-07-09T04:15:29;16.25;;;8.18;;
48052;SDS011;33824;51.600;5.718;2023-07-09T04:17:54;13.45;;;8.15;;
48052;SDS011;33824;51.600;5.718;2023-07-09T04:20:20;16.83;;;8.35;;
48052;SDS011;33824;51.600;5.718;2023-07-09T04:22:46;14.95;;;8.48;;
48052;SDS011;33824;51.600;5.718;2023-07-09T04:25:12;17.02;;;8.77;;
48052;SDS011;33824;51.600;5.718;2023-07-09T04:27:38;15.55;;;8.45;;
48052;SDS011;33824;51.600;5.718;2023-07-09T04:30:14;22.58;;;8.43;;
48052;SDS011;33824;51.600;5.718;2023-07-09T04:32:40;15.55;;;8.50;;
48052;SDS011;33824;51.600;5.718;2023-07-09T04:35:11;14.32;;;8.85;;
48052;SDS011;33824;51.600;5.718;2023-07-09T04:37:38;15.95;;;8.32;;
48052;SDS011;33824;51.600;5.718;2023-07-09T04:40:05;17.42;;;9.50;;
48052;SDS011;33824;51.600;5.718;2023-07-09T04:42:32;14.07;;;8.20;;
48052;SDS011;33824;51.600;5.718;2023-07-09T04:44:58;16.00;;;9.13;;
48052;SDS011;33824;51.600;5.718;2023-07-09T04:47:23;17.67;;;9.57;;
48052;SDS011;33824;51.600;5.718;2023-07-09T04:49:49;16.63;;;9.40;;
48052;SDS011;33824;51.600;5.718;2023-07-09T04:52:14;18.02;;;9.07;;
48052;SDS011;33824;51.600;5.718;2023-07-09T04:54:41;18.15;;;9.35;;
48052;SDS011;33824;51.600;5.718;2023-07-09T04:57:10;17.27;;;9.32;;
48052;SDS011;33824;51.600;5.718;2023-07-09T04:59:37;16.17;;;9.45;;
48052;SDS011;33824;51.600;5.718;2023-07-09T05:02:03;15.65;;;9.30;;
48052;SDS011;33824;51.600;5.718;2023-07-09T05:04:29;22.98;;;8.93;;
48052;SDS011;33824;51.600;5.718;2023-07-09T05:06:56;15.27;;;9.25;;
48052;SDS011;33824;51.600;5.718;2023-07-09T05:09:22;20.25;;;10.02;;
48052;SDS011;33824;51.600;5.718;2023-07-09T05:11:48;21.25;;;11.05;;
48052;SDS011;33824;51.600;5.718;2023-07-09T05:14:14;18.67;;;12.05;;
48052;SDS011;33824;51.600;5.718;2023-07-09T05:16:40;19.73;;;11.95;;
48052;SDS011;33824;51.600;5.718;2023-07-09T05:19:09;26.05;;;13.38;;
48052;SDS011;33824;51.600;5.718;2023-07-09T05:21:34;23.77;;;12.93;;
48052;SDS011;33824;51.600;5.718;2023-07-09T05:24:00;19.80;;;11.70;;
48052;SDS011;33824;51.600;5.718;2023-07-09T05:26:26;23.15;;;12.75;;
48052;SDS011;33824;51.600;5.718;2023-07-09T05:28:51;20.02;;;12.18;;
48052;SDS011;33824;51.600;5.718;2023-07-09T05:31:17;21.63;;;12.50;;
48052;SDS011;33824;51.600;5.718;2023-07-09T05:33:43;23.45;;;11.35;;
48052;SDS011;33824;51.600;5.718;2023-07-09T05:36:10;20.52;;;11.80;;
48052;SDS011;33824;51.600;5.718;2023-07-09T05:38:42;19.07;;;12.97;;
48052;SDS011;33824;51.600;5.718;2023-07-09T05:41:08;28.15;;;13.60;;
48052;SDS011;33824;51.600;5.718;2023-07-09T05:43:34;25.58;;;13.05;;
48052;SDS011;33824;51.600;5.718;2023-07-09T05:46:00;20.48;;;12.15;;
48052;SDS011;33824;51.600;5.718;2023-07-09T05:48:28;22.95;;;13.15;;
48052;SDS011;33824;51.600;5.718;2023-07-09T05:50:53;20.83;;;13.02;;
48052;SDS011;33824;51.600;5.718;2023-07-09T05:53:20;18.48;;;12.07;;
48052;SDS011;33824;51.600;5.718;2023-07-09T05:55:52;21.95;;;12.45;;
48052;SDS011;33824;51.600;5.718;2023-07-09T05:58:19;21.92;;;12.00;;
48052;SDS011;33824;51.600;5.718;2023-07-09T06:00:45;21.13;;;12.65;;
48052;SDS011;33824;51.600;5.718;2023-07-09T06:03:10;28.80;;;13.70;;
48052;SDS011;33824;51.600;5.718;2023-07-09T06:05:36;20.75;;;11.55;;
48052;SDS011;33824;51.600;5.718;2023-07-09T06:08:02;19.38;;;12.10;;
48052;SDS011;33824;51.600;5.718;2023-07-09T06:10:29;20.17;;;12.05;;
48052;SDS011;33824;51.600;5.718;2023-07-09T06:12:55;22.92;;;11.98;;
48052;SDS011;33824;51.600;5.718;2023-07-09T06:15:24;22.75;;;11.10;;
48052;SDS011;33824;51.600;5.718;2023-07-09T06:17:50;23.45;;;12.70;;
48052;SDS011;33824;51.600;5.718;2023-07-09T06:20:16;22.40;;;11.85;;
48052;SDS011;33824;51.600;5.718;2023-07-09T06:22:41;17.75;;;12.07;;
48052;SDS011;33824;51.600;5.718;2023-07-09T06:25:07;24.48;;;12.73;;
48052;SDS011;33824;51.600;5.718;2023-07-09T06:27:33;19.48;;;12.05;;
48052;SDS011;33824;51.600;5.718;2023-07-09T06:29:59;16.73;;;10.80;;
48052;SDS011;33824;51.600;5.718;2023-07-09T06:32:24;21.45;;;11.80;;
48052;SDS011;33824;51.600;5.718;2023-07-09T06:34:51;17.85;;;10.90;;
48052;SDS011;33824;51.600;5.718;2023-07-09T06:37:16;16.70;;;10.25;;
48052;SDS011;33824;51.600;5.718;2023-07-09T06:39:42;20.83;;;11.52;;
48052;SDS011;33824;51.600;5.718;2023-07-09T06:42:07;16.92;;;9.85;;
48052;SDS011;33824;51.600;5.718;2023-07-09T06:44:33;16.60;;;9.15;;
48052;SDS011;33824;51.600;5.718;2023-07-09T06:46:59;18.75;;;10.02;;
48052;SDS011;33824;51.600;5.718;2023-07-09T06:49:24;16.63;;;8.73;;
48052;SDS011;33824;51.600;5.718;2023-07-09T06:51:50;15.60;;;8.43;;
48052;SDS011;33824;51.600;5.718;2023-07-09T06:54:16;16.25;;;9.40;;
48052;SDS011;33824;51.600;5.718;2023-07-09T06:56:41;19.98;;;9.40;;
48052;SDS011;33824;51.600;5.718;2023-07-09T06:59:07;16.33;;;9.68;;
48052;SDS011;33824;51.600;5.718;2023-07-09T07:01:32;18.85;;;11.07;;
48052;SDS011;33824;51.600;5.718;2023-07-09T07:03:58;14.38;;;9.32;;
48052;SDS011;33824;51.600;5.718;2023-07-09T07:06:23;16.00;;;9.75;;
48052;SDS011;33824;51.600;5.718;2023-07-09T07:08:49;17.80;;;9.52;;
48052;SDS011;33824;51.600;5.718;2023-07-09T07:11:15;14.98;;;8.77;;
48052;SDS011;33824;51.600;5.718;2023-07-09T07:13:41;18.40;;;9.82;;
48052;SDS011;33824;51.600;5.718;2023-07-09T07:16:10;16.45;;;9.07;;
48052;SDS011;33824;51.600;5.718;2023-07-09T07:18:37;12.55;;;8.82;;
48052;SDS011;33824;51.600;5.718;2023-07-09T07:21:03;15.73;;;9.38;;
48052;SDS011;33824;51.600;5.718;2023-07-09T07:23:30;13.88;;;8.10;;
48052;SDS011;33824;51.600;5.718;2023-07-09T07:25:55;17.20;;;9.25;;
48052;SDS011;33824;51.600;5.718;2023-07-09T07:28:21;15.05;;;8.10;;
48052;SDS011;33824;51.600;5.718;2023-07-09T07:30:57;16.35;;;7.93;;
48052;SDS011;33824;51.600;5.718;2023-07-09T07:33:30;13.35;;;8.38;;
48052;SDS011;33824;51.600;5.718;2023-07-09T07:35:56;11.13;;;7.40;;
48052;SDS011;33824;51.600;5.718;2023-07-09T07:38:21;13.63;;;6.57;;
48052;SDS011;33824;51.600;5.718;2023-07-09T07:40:47;11.07;;;6.93;;
48052;SDS011;33824;51.600;5.718;2023-07-09T07:43:13;13.82;;;6.28;;
48052;SDS011;33824;51.600;5.718;2023-07-09T07:45:42;14.15;;;6.40;;
48052;SDS011;33824;51.600;5.718;2023-07-09T07:48:08;11.48;;;5.78;;
48052;SDS011;33824;51.600;5.718;2023-07-09T07:50:34;9.30;;;6.13;;
48052;SDS011;33824;51.600;5.718;2023-07-09T07:53:00;10.07;;;5.50;;
48052;SDS011;33824;51.600;5.718;2023-07-09T07:55:25;10.47;;;5.50;;
48052;SDS011;33824;51.600;5.718;2023-07-09T07:57:51;8.00;;;4.75;;
48052;SDS011;33824;51.600;5.718;2023-07-09T08:00:16;7.35;;;4.50;;
48052;SDS011;33824;51.600;5.718;2023-07-09T08:02:42;9.30;;;4.20;;
48052;SDS011;33824;51.600;5.718;2023-07-09T08:05:08;8.30;;;3.67;;
48052;SDS011;33824;51.600;5.718;2023-07-09T08:07:33;6.90;;;3.70;;
48052;SDS011;33824;51.600;5.718;2023-07-09T08:09:59;6.75;;;3.40;;
48052;SDS011;33824;51.600;5.718;2023-07-09T08:12:24;8.35;;;3.75;;
48052;SDS011;33824;51.600;5.718;2023-07-09T08:14:50;8.57;;;3.53;;
48052;SDS011;33824;51.600;5.718;2023-07-09T08:17:16;6.50;;;3.13;;
48052;SDS011;33824;51.600;5.718;2023-07-09T08:19:45;7.72;;;3.28;;
48052;SDS011;33824;51.600;5.718;2023-07-09T08:22:12;10.35;;;3.80;;
48052;SDS011;33824;51.600;5.718;2023-07-09T08:24:39;6.80;;;2.95;;
48052;SDS011;33824;51.600;5.718;2023-07-09T08:27:06;8.02;;;2.97;;
48052;SDS011;33824;51.600;5.718;2023-07-09T08:29:32;5.53;;;2.70;;
48052;SDS011;33824;51.600;5.718;2023-07-09T08:31:58;5.00;;;2.83;;
48052;SDS011;33824;51.600;5.718;2023-07-09T08:34:23;4.43;;;2.47;;
48052;SDS011;33824;51.600;5.718;2023-07-09T08:36:49;4.40;;;2.78;;
48052;SDS011;33824;51.600;5.718;2023-07-09T08:39:14;5.75;;;3.10;;
48052;SDS011;33824;51.600;5.718;2023-07-09T08:42:24;9.00;;;3.47;;
48052;SDS011;33824;51.600;5.718;2023-07-09T08:47:02;6.70;;;2.97;;
48052;SDS011;33824;51.600;5.718;2023-07-09T08:49:41;5.43;;;2.88;;
48052;SDS011;33824;51.600;5.718;2023-07-09T08:52:23;8.90;;;3.25;;
48052;SDS011;33824;51.600;5.718;2023-07-09T08:54:55;5.97;;;3.17;;
48052;SDS011;33824;51.600;5.718;2023-07-09T08:57:26;5.63;;;2.75;;
48052;SDS011;33824;51.600;5.718;2023-07-09T09:00:01;6.65;;;3.42;;
48052;SDS011;33824;51.600;5.718;2023-07-09T09:02:42;7.30;;;3.17;;
48052;SDS011;33824;51.600;5.718;2023-07-09T09:05:12;4.75;;;2.97;;
48052;SDS011;33824;51.600;5.718;2023-07-09T09:07:44;6.93;;;3.63;;
48052;SDS011;33824;51.600;5.718;2023-07-09T09:10:18;6.15;;;3.20;;
48052;SDS011;33824;51.600;5.718;2023-07-09T09:15:17;5.47;;;2.95;;
48052;SDS011;33824;51.600;5.718;2023-07-09T09:17:45;5.18;;;2.97;;
48052;SDS011;33824;51.600;5.718;2023-07-09T09:20:19;6.15;;;3.33;;
48052;SDS011;33824;51.600;5.718;2023-07-09T09:25:31;9.10;;;2.55;;
48052;SDS011;33824;51.600;5.718;2023-07-09T09:27:59;4.20;;;2.40;;
48052;SDS011;33824;51.600;5.718;2023-07-09T09:30:26;7.95;;;2.55;;
48052;SDS011;33824;51.600;5.718;2023-07-09T09:32:56;6.63;;;3.03;;
48052;SDS011;33824;51.600;5.718;2023-07-09T09:35:28;4.72;;;2.45;;
48052;SDS011;33824;51.600;5.718;2023-07-09T09:37:56;6.55;;;2.65;;
48052;SDS011;33824;51.600;5.718;2023-07-09T09:40:26;12.50;;;4.22;;
48052;SDS011;33824;51.600;5.718;2023-07-09T09:42:57;7.03;;;2.95;;
48052;SDS011;33824;51.600;5.718;2023-07-09T09:45:26;5.43;;;2.60;;
48052;SDS011;33824;51.600;5.718;2023-07-09T09:48:00;3.58;;;2.33;;
48052;SDS011;33824;51.600;5.718;2023-07-09T09:50:30;3.28;;;2.45;;
48052;SDS011;33824;51.600;5.718;2023-07-09T09:52:58;7.47;;;2.78;;
48052;SDS011;33824;51.600;5.718;2023-07-09T09:55:28;5.57;;;2.78;;
48052;SDS011;33824;51.600;5.718;2023-07-09T09:57:55;11.63;;;2.40;;
48052;SDS011;33824;51.600;5.718;2023-07-09T10:00:23;4.45;;;2.53;;
48052;SDS011;33824;51.600;5.718;2023-07-09T10:03:00;7.40;;;2.72;;
48052;SDS011;33824;51.600;5.718;2023-07-09T10:05:33;5.95;;;2.75;;
48052;SDS011;33824;51.600;5.718;2023-07-09T10:08:07;4.35;;;2.22;;
48052;SDS011;33824;51.600;5.718;2023-07-09T10:10:37;6.47;;;2.35;;
48052;SDS011;33824;51.600;5.718;2023-07-09T10:13:16;6.20;;;2.75;;
48052;SDS011;33824;51.600;5.718;2023-07-09T10:15:59;5.60;;;2.45;;
48052;SDS011;33824;51.600;5.718;2023-07-09T10:18:43;4.83;;;3.10;;
48052;SDS011;33824;51.600;5.718;2023-07-09T10:21:20;5.68;;;2.50;;
48052;SDS011;33824;51.600;5.718;2023-07-09T10:26:56;6.50;;;2.58;;
48052;SDS011;33824;51.600;5.718;2023-07-09T10:32:58;5.78;;;2.50;;
48052;SDS011;33824;51.600;5.718;2023-07-09T10:38:21;3.80;;;2.58;;
48052;SDS011;33824;51.600;5.718;2023-07-09T10:40:54;4.13;;;2.33;;
48052;SDS011;33824;51.600;5.718;2023-07-09T10:43:38;5.68;;;2.78;;
48052;SDS011;33824;51.600;5.718;2023-07-09T10:46:22;5.45;;;2.50;;
48052;SDS011;33824;51.600;5.718;2023-07-09T10:48:51;4.18;;;2.33;;
48052;SDS011;33824;51.600;5.718;2023-07-09T10:51:32;11.00;;;4.25;;
48052;SDS011;33824;51.600;5.718;2023-07-09T10:54:10;4.05;;;2.22;;
48052;SDS011;33824;51.600;5.718;2023-07-09T10:56:45;4.90;;;2.70;;
48052;SDS011;33824;51.600;5.718;2023-07-09T10:59:20;6.30;;;2.22;;
48052;SDS011;33824;51.600;5.718;2023-07-09T11:01:54;3.95;;;2.33;;
48052;SDS011;33824;51.600;5.718;2023-07-09T11:04:29;4.57;;;2.20;;
48052;SDS011;33824;51.600;5.718;2023-07-09T11:07:02;5.30;;;2.28;;
48052;SDS011;33824;51.600;5.718;2023-07-09T11:09:33;4.47;;;2.45;;
48052;SDS011;33824;51.600;5.718;2023-07-09T11:12:04;3.72;;;2.03;;
48052;SDS011;33824;51.600;5.718;2023-07-09T11:17:17;3.85;;;2.55;;
48052;SDS011;33824;51.600;5.718;2023-07-09T11:19:45;4.47;;;2.30;;
48052;SDS011;33824;51.600;5.718;2023-07-09T11:22:22;3.75;;;2.35;;
48052;SDS011;33824;51.600;5.718;2023-07-09T11:25:10;4.22;;;2.25;;
48052;SDS011;33824;51.600;5.718;2023-07-09T11:27:52;6.40;;;2.50;;
48052;SDS011;33824;51.600;5.718;2023-07-09T11:30:26;3.80;;;2.30;;
48052;SDS011;33824;51.600;5.718;2023-07-09T11:32:54;8.38;;;2.25;;
48052;SDS011;33824;51.600;5.718;2023-07-09T11:35:28;4.93;;;1.90;;
48052;SDS011;33824;51.600;5.718;2023-07-09T11:37:55;6.05;;;2.67;;
48052;SDS011;33824;51.600;5.718;2023-07-09T11:40:24;4.60;;;2.28;;
48052;SDS011;33824;51.600;5.718;2023-07-09T11:42:57;2.70;;;2.20;;
48052;SDS011;33824;51.600;5.718;2023-07-09T11:45:33;3.50;;;2.10;;
48052;SDS011;33824;51.600;5.718;2023-07-09T11:50:50;7.03;;;2.45;;
48052;SDS011;33824;51.600;5.718;2023-07-09T11:56:07;10.40;;;2.58;;
48052;SDS011;33824;51.600;5.718;2023-07-09T11:58:34;3.72;;;2.30;;
48052;SDS011;33824;51.600;5.718;2023-07-09T12:00:59;5.95;;;2.40;;
48052;SDS011;33824;51.600;5.718;2023-07-09T12:03:29;5.53;;;2.80;;
48052;SDS011;33824;51.600;5.718;2023-07-09T12:06:02;7.25;;;2.33;;
48052;SDS011;33824;51.600;5.718;2023-07-09T12:08:32;4.90;;;2.33;;
48052;SDS011;33824;51.600;5.718;2023-07-09T12:11:03;7.97;;;1.80;;
48052;SDS011;33824;51.600;5.718;2023-07-09T12:13:37;8.65;;;2.00;;
48052;SDS011;33824;51.600;5.718;2023-07-09T12:16:03;3.50;;;2.20;;
48052;SDS011;33824;51.600;5.718;2023-07-09T12:18:29;6.40;;;2.45;;
48052;SDS011;33824;51.600;5.718;2023-07-09T12:20:54;6.70;;;2.10;;
48052;SDS011;33824;51.600;5.718;2023-07-09T12:23:30;5.55;;;2.50;;
48052;SDS011;33824;51.600;5.718;2023-07-09T12:26:01;7.22;;;2.05;;
48052;SDS011;33824;51.600;5.718;2023-07-09T12:28:28;3.97;;;2.40;;
48052;SDS011;33824;51.600;5.718;2023-07-09T12:30:55;3.55;;;2.13;;
48052;SDS011;33824;51.600;5.718;2023-07-09T12:33:25;4.40;;;2.10;;
48052;SDS011;33824;51.600;5.718;2023-07-09T12:35:57;3.40;;;1.90;;
48052;SDS011;33824;51.600;5.718;2023-07-09T12:38:26;4.38;;;1.88;;
48052;SDS011;33824;51.600;5.718;2023-07-09T12:40:53;3.78;;;1.92;;
48052;SDS011;33824;51.600;5.718;2023-07-09T12:43:25;6.05;;;2.45;;
48052;SDS011;33824;51.600;5.718;2023-07-09T12:45:56;3.65;;;2.38;;
48052;SDS011;33824;51.600;5.718;2023-07-09T12:48:24;3.55;;;2.35;;
48052;SDS011;33824;51.600;5.718;2023-07-09T12:50:53;4.20;;;2.88;;
48052;SDS011;33824;51.600;5.718;2023-07-09T12:53:20;7.70;;;2.80;;
48052;SDS011;33824;51.600;5.718;2023-07-09T12:55:48;5.35;;;2.80;;
48052;SDS011;33824;51.600;5.718;2023-07-09T12:58:37;4.85;;;2.13;;
48052;SDS011;33824;51.600;5.718;2023-07-09T13:01:24;5.05;;;2.60;;
48052;SDS011;33824;51.600;5.718;2023-07-09T13:03:54;4.80;;;2.47;;
48052;SDS011;33824;51.600;5.718;2023-07-09T13:06:28;5.70;;;2.28;;
48052;SDS011;33824;51.600;5.718;2023-07-09T13:08:59;7.68;;;2.20;;
48052;SDS011;33824;51.600;5.718;2023-07-09T13:11:31;4.05;;;2.53;;
48052;SDS011;33824;51.600;5.718;2023-07-09T13:13:58;6.55;;;2.58;;
48052;SDS011;33824;51.600;5.718;2023-07-09T13:16:27;5.65;;;2.20;;
48052;SDS011;33824;51.600;5.718;2023-07-09T13:18:53;5.28;;;2.40;;
48052;SDS011;33824;51.600;5.718;2023-07-09T13:21:20;7.18;;;2.40;;
48052;SDS011;33824;51.600;5.718;2023-07-09T13:23:46;5.18;;;2.72;;
48052;SDS011;33824;51.600;5.718;2023-07-09T13:26:13;4.78;;;3.05;;
48052;SDS011;33824;51.600;5.718;2023-07-09T13:28:39;5.97;;;4.00;;
48052;SDS011;33824;51.600;5.718;2023-07-09T13:31:15;7.90;;;5.00;;
48052;SDS011;33824;51.600;5.718;2023-07-09T13:33:42;8.20;;;5.03;;
48052;SDS011;33824;51.600;5.718;2023-07-09T13:36:08;10.55;;;6.30;;
48052;SDS011;33824;51.600;5.718;2023-07-09T13:38:35;9.75;;;6.40;;
48052;SDS011;33824;51.600;5.718;2023-07-09T13:41:12;12.80;;;7.25;;
48052;SDS011;33824;51.600;5.718;2023-07-09T13:43:41;10.75;;;6.60;;
48052;SDS011;33824;51.600;5.718;2023-07-09T13:46:09;14.02;;;7.30;;
48052;SDS011;33824;51.600;5.718;2023-07-09T13:48:36;11.68;;;7.88;;
48052;SDS011;33824;51.600;5.718;2023-07-09T13:51:10;11.90;;;7.78;;
48052;SDS011;33824;51.600;5.718;2023-07-09T13:53:39;12.50;;;8.05;;
48052;SDS011;33824;51.600;5.718;2023-07-09T13:56:05;14.30;;;8.20;;
48052;SDS011;33824;51.600;5.718;2023-07-09T13:58:30;16.17;;;9.45;;
48052;SDS011;33824;51.600;5.718;2023-07-09T14:00:57;11.07;;;7.70;;
48052;SDS011;33824;51.600;5.718;2023-07-09T14:03:30;12.88;;;8.10;;
48052;SDS011;33824;51.600;5.718;2023-07-09T14:05:57;11.98;;;7.75;;
48052;SDS011;33824;51.600;5.718;2023-07-09T14:08:22;14.63;;;7.82;;
48052;SDS011;33824;51.600;5.718;2023-07-09T14:10:49;17.50;;;8.55;;
48052;SDS011;33824;51.600;5.718;2023-07-09T14:13:18;13.45;;;8.23;;
48052;SDS011;33824;51.600;5.718;2023-07-09T14:15:46;12.55;;;6.50;;
48052;SDS011;33824;51.600;5.718;2023-07-09T14:18:13;10.95;;;6.15;;
48052;SDS011;33824;51.600;5.718;2023-07-09T14:20:42;11.52;;;6.30;;
48052;SDS011;33824;51.600;5.718;2023-07-09T14:23:09;8.82;;;5.55;;
48052;SDS011;33824;51.600;5.718;2023-07-09T14:25:41;9.70;;;5.35;;
48052;SDS011;33824;51.600;5.718;2023-07-09T14:28:15;9.52;;;4.88;;
48052;SDS011;33824;51.600;5.718;2023-07-09T14:30:46;8.57;;;4.13;;
48052;SDS011;33824;51.600;5.718;2023-07-09T14:33:15;7.65;;;3.83;;
48052;SDS011;33824;51.600;5.718;2023-07-09T14:35:47;11.10;;;4.55;;
48052;SDS011;33824;51.600;5.718;2023-07-09T14:38:19;6.93;;;3.30;;
48052;SDS011;33824;51.600;5.718;2023-07-09T14:40:55;5.22;;;3.10;;
48052;SDS011;33824;51.600;5.718;2023-07-09T14:43:28;5.10;;;2.83;;
48052;SDS011;33824;51.600;5.718;2023-07-09T14:45:57;5.20;;;2.80;;
48052;SDS011;33824;51.600;5.718;2023-07-09T14:48:24;3.35;;;2.33;;
48052;SDS011;33824;51.600;5.718;2023-07-09T14:50:49;3.65;;;2.40;;
48052;SDS011;33824;51.600;5.718;2023-07-09T14:53:20;5.80;;;2.53;;
48052;SDS011;33824;51.600;5.718;2023-07-09T14:55:51;3.20;;;2.15;;
48052;SDS011;33824;51.600;5.718;2023-07-09T14:58:19;3.42;;;2.25;;
48052;SDS011;33824;51.600;5.718;2023-07-09T15:00:48;4.22;;;2.28;;
48052;SDS011;33824;51.600;5.718;2023-07-09T15:03:25;3.03;;;1.90;;
48052;SDS011;33824;51.600;5.718;2023-07-09T15:05:52;4.85;;;2.63;;
48052;SDS011;33824;51.600;5.718;2023-07-09T15:08:23;4.60;;;2.00;;
48052;SDS011;33824;51.600;5.718;2023-07-09T15:10:52;5.35;;;2.25;;
48052;SDS011;33824;51.600;5.718;2023-07-09T15:13:23;3.17;;;2.30;;
48052;SDS011;33824;51.600;5.718;2023-07-09T15:15:53;3.63;;;2.00;;
48052;SDS011;33824;51.600;5.718;2023-07-09T15:18:19;4.43;;;2.20;;
48052;SDS011;33824;51.600;5.718;2023-07-09T15:20:50;3.97;;;2.05;;